Terminal Aerodrome Forecast
Issued by NWS

Home | Current Version | Previous Version | Text Only | Print | Product List | Glossary On
Versions: 1 2 3 4 5 6 7 8 9 10 11 12 13 14 15 16 17 18 19 20 21 22 23 24 25 26 27 28 29 30 31 32 33 34 35 36 37 38 39 40 41 42 43 44 45
000
FTUS44 KHGX 012327
TAFLBX
TAF
KLBX 012327Z 0200/0224 09007KT P6SM VCSH SCT020 BKN035
     FM020300 VRB03KT P6SM BKN250
     FM021000 15005KT P6SM VCSH SCT025 SCT250
     FM021400 12007KT P6SM VCTS SCT020 BKN035CB BKN200
     FM021900 13008KT P6SM SCT020 BKN040 BKN150=

USA.gov is the U.S. government's official web portal to all federal, state and local government web resources and services.